createdAt,value
2022-11-21T00:00:10.056Z,98450.00
2022-11-21T00:02:43.122Z,98453.00
2022-11-21T00:05:10.073Z,98450.00
2022-11-21T00:07:43.160Z,98445.00
2022-11-21T00:10:17.150Z,98445.00
2022-11-21T00:12:44.026Z,98447.00
2022-11-21T00:15:11.136Z,98436.00
2022-11-21T00:17:45.177Z,98431.00
2022-11-21T00:20:12.165Z,98445.00
2022-11-21T00:22:45.139Z,98445.00
2022-11-21T00:25:12.428Z,98442.00
2022-11-21T00:27:46.136Z,98424.00
2022-11-21T00:30:19.953Z,98443.00
2022-11-21T00:32:53.181Z,98437.00
2022-11-21T00:35:20.040Z,98450.00
2022-11-21T00:37:53.204Z,98426.00
2022-11-21T00:40:26.213Z,98438.00
2022-11-21T00:42:53.287Z,98426.00
2022-11-21T00:45:27.186Z,98427.00
2022-11-21T00:47:54.234Z,98434.00
2022-11-21T00:50:28.113Z,98437.00
2022-11-21T00:53:03.168Z,98452.00
2022-11-21T00:55:30.042Z,98435.00
2022-11-21T00:57:56.868Z,98430.00
2022-11-21T01:00:30.269Z,98444.00
2022-11-21T01:02:57.161Z,98441.00
2022-11-21T01:05:24.033Z,98433.00
2022-11-21T01:07:57.151Z,98434.00
2022-11-21T01:10:23.988Z,98433.00
2022-11-21T01:12:50.871Z,98416.00
2022-11-21T01:15:24.208Z,98405.00
2022-11-21T01:17:51.107Z,98394.00
2022-11-21T01:20:24.156Z,98415.00
2022-11-21T01:22:51.064Z,98397.00
2022-11-21T01:25:24.210Z,98405.00
2022-11-21T01:27:57.204Z,98393.00
2022-11-21T01:30:30.180Z,98410.00
2022-11-21T01:33:03.174Z,98397.00
2022-11-21T01:35:30.102Z,98399.00
2022-11-21T01:37:56.996Z,98413.00
2022-11-21T01:40:30.218Z,98404.00
2022-11-21T01:43:04.413Z,98409.00
2022-11-21T01:46:11.170Z,98395.00
2022-11-21T01:48:52.490Z,98411.00
2022-11-21T01:51:46.223Z,98416.00
2022-11-21T01:54:39.766Z,98417.00
2022-11-21T01:57:39.180Z,98408.00
2022-11-21T02:00:20.342Z,98387.00
2022-11-21T02:02:58.195Z,98408.00
2022-11-21T02:05:38.209Z,98408.00
2022-11-21T02:08:17.800Z,98409.00
2022-11-21T02:11:13.184Z,98381.00
2022-11-21T02:13:40.085Z,98392.00
2022-11-21T02:16:07.332Z,98391.00
2022-11-21T02:18:41.206Z,98386.00
2022-11-21T02:21:46.197Z,98401.00
2022-11-21T02:25:07.132Z,98408.00
2022-11-21T02:27:40.214Z,98407.00
2022-11-21T02:30:09.048Z,98409.00
2022-11-21T02:32:45.215Z,98397.00
2022-11-21T02:35:18.219Z,98379.00
2022-11-21T02:37:53.444Z,98387.00
2022-11-21T02:40:30.190Z,98391.00
2022-11-21T02:43:26.195Z,98388.00
2022-11-21T02:45:53.044Z,98378.00
2022-11-21T02:48:26.262Z,98398.00
2022-11-21T02:50:59.207Z,98388.00
2022-11-21T02:53:32.210Z,98391.00
2022-11-21T02:55:59.106Z,98380.00
2022-11-21T02:58:33.210Z,98402.00
2022-11-21T03:01:00.163Z,98399.00
2022-11-21T03:03:33.255Z,98373.00
2022-11-21T03:06:06.212Z,98385.00
2022-11-21T03:08:39.233Z,98399.00
2022-11-21T03:11:12.230Z,98406.00
2022-11-21T03:13:39.099Z,98412.00
2022-11-21T03:16:12.198Z,98402.00
2022-11-21T03:18:45.198Z,98406.00
2022-11-21T03:21:12.071Z,98403.00
2022-11-21T03:23:50.080Z,98401.00
2022-11-21T03:26:17.157Z,98372.00
2022-11-21T03:28:50.246Z,98381.00
2022-11-21T03:31:17.144Z,98388.00
2022-11-21T03:33:43.993Z,98384.00
2022-11-21T03:36:17.205Z,98362.00
2022-11-21T03:38:44.115Z,98355.00
2022-11-21T03:41:17.226Z,98348.00
2022-11-21T03:43:44.115Z,98342.00
2022-11-21T03:46:17.193Z,98352.00
2022-11-21T03:48:44.062Z,98345.00
2022-11-21T03:51:17.205Z,98332.00
2022-11-21T03:53:44.057Z,98343.00
2022-11-21T03:56:17.263Z,98336.00
2022-11-21T03:58:45.762Z,98337.00
2022-11-21T04:01:19.295Z,98349.00
2022-11-21T04:03:53.220Z,98343.00
2022-11-21T04:06:21.441Z,98347.00
2022-11-21T04:08:55.233Z,98342.00
2022-11-21T04:11:22.140Z,98346.00
2022-11-21T04:13:55.217Z,98350.00
2022-11-21T04:16:28.243Z,98348.00
2022-11-21T04:19:01.212Z,98331.00
2022-11-21T04:21:28.072Z,98333.00
2022-11-21T04:24:01.227Z,98347.00
2022-11-21T04:26:28.100Z,98335.00
2022-11-21T04:28:54.937Z,98333.00
2022-11-21T04:31:28.272Z,98335.00
2022-11-21T04:33:55.170Z,98334.00
2022-11-21T04:36:28.263Z,98317.00
2022-11-21T04:38:55.144Z,98322.00
2022-11-21T04:41:28.264Z,98337.00
2022-11-21T04:43:55.129Z,98335.00
2022-11-21T04:46:22.202Z,98324.00
2022-11-21T04:48:55.245Z,98327.00
2022-11-21T04:51:22.152Z,98323.00
2022-11-21T04:53:55.307Z,98308.00
2022-11-21T04:56:29.295Z,98318.00
2022-11-21T04:59:02.294Z,98317.00
2022-11-21T05:01:35.379Z,98304.00
2022-11-21T05:04:09.270Z,98330.00
2022-11-21T05:06:36.112Z,98317.00
2022-11-21T05:09:09.275Z,98292.00
2022-11-21T05:11:36.109Z,98312.00
2022-11-21T05:14:03.002Z,98290.00
2022-11-21T05:16:36.275Z,98315.00
2022-11-21T05:19:03.167Z,98310.00
2022-11-21T05:21:36.271Z,98311.00
2022-11-21T05:24:03.160Z,98306.00
2022-11-21T05:26:36.261Z,98301.00
2022-11-21T05:29:03.203Z,98300.00
2022-11-21T05:31:36.289Z,98308.00
2022-11-21T05:34:03.140Z,98299.00
2022-11-21T05:36:36.272Z,98288.00
2022-11-21T05:39:03.266Z,98299.00
2022-11-21T05:41:30.253Z,98295.00
2022-11-21T05:44:03.276Z,98288.00
2022-11-21T05:46:36.293Z,98296.00
2022-11-21T05:49:03.185Z,98293.00
2022-11-21T05:51:30.030Z,98305.00
2022-11-21T05:54:03.291Z,98300.00
2022-11-21T05:56:30.284Z,98304.00
2022-11-21T05:59:04.258Z,98315.00
2022-11-21T06:01:31.125Z,98317.00
2022-11-21T06:04:04.314Z,98308.00
2022-11-21T06:06:31.537Z,98302.00
2022-11-21T06:09:10.721Z,98303.00
2022-11-21T06:11:40.095Z,98322.00
2022-11-21T06:14:13.395Z,98343.00
2022-11-21T06:16:45.344Z,98326.00
2022-11-21T06:19:21.369Z,98329.00
2022-11-21T06:21:48.448Z,98320.00
2022-11-21T06:24:20.806Z,98328.00
2022-11-21T06:26:55.420Z,98338.00
2022-11-21T06:29:35.019Z,98327.00
2022-11-21T06:32:09.489Z,98319.00
2022-11-21T06:34:36.578Z,98305.00
2022-11-21T06:37:10.414Z,98311.00
2022-11-21T06:39:37.392Z,98326.00
2022-11-21T06:42:11.330Z,98314.00
2022-11-21T06:44:44.285Z,98320.00
2022-11-21T06:47:11.584Z,98299.00
2022-11-21T06:49:45.390Z,98325.00
2022-11-21T06:52:19.365Z,98314.00
2022-11-21T06:54:53.410Z,98343.00
2022-11-21T06:57:27.368Z,98310.00
2022-11-21T06:59:54.446Z,98309.00
2022-11-21T07:02:27.347Z,98308.00
2022-11-21T07:04:54.200Z,98328.00
2022-11-21T07:07:21.112Z,98318.00
2022-11-21T07:09:54.524Z,98316.00
2022-11-21T07:12:21.428Z,98289.00
2022-11-21T07:14:48.381Z,98318.00
2022-11-21T07:17:22.356Z,98316.00
2022-11-21T07:19:49.520Z,98306.00
2022-11-21T07:22:23.416Z,98295.00
2022-11-21T07:24:57.392Z,98314.00
2022-11-21T07:27:24.277Z,98288.00
2022-11-21T07:29:57.310Z,98285.00
2022-11-21T07:32:25.841Z,98284.00
2022-11-21T07:34:59.362Z,98280.00
2022-11-21T07:37:32.388Z,98298.00
2022-11-21T07:39:59.355Z,98298.00
2022-11-21T07:42:32.375Z,98318.00
2022-11-21T07:44:59.437Z,98307.00
2022-11-21T07:47:26.374Z,98291.00
2022-11-21T07:49:59.343Z,98316.00
2022-11-21T07:52:26.246Z,98302.00
2022-11-21T07:54:59.380Z,98307.00
2022-11-21T07:57:26.278Z,98301.00
2022-11-21T07:59:59.361Z,98324.00
2022-11-21T08:02:34.454Z,98326.00
2022-11-21T08:05:01.409Z,98298.00
2022-11-21T08:07:28.344Z,98321.00
2022-11-21T08:10:01.385Z,98320.00
2022-11-21T08:12:34.353Z,98321.00
2022-11-21T08:15:07.385Z,98336.00
2022-11-21T08:17:34.336Z,98337.00
2022-11-21T08:20:07.359Z,98336.00
2022-11-21T08:22:41.552Z,98311.00
2022-11-21T08:25:16.405Z,98344.00
2022-11-21T08:27:49.363Z,98332.00
2022-11-21T08:30:16.349Z,98335.00
2022-11-21T08:32:49.319Z,98302.00
2022-11-21T08:35:16.513Z,98312.00
2022-11-21T08:37:56.359Z,98316.00
2022-11-21T08:40:24.483Z,98290.00
2022-11-21T08:43:16.369Z,98318.00
2022-11-21T08:45:43.201Z,98325.00
2022-11-21T08:48:19.374Z,98319.00
2022-11-21T08:50:46.282Z,98323.00
2022-11-21T08:53:19.402Z,98311.00
2022-11-21T08:55:46.332Z,98300.00
2022-11-21T08:58:19.422Z,98302.00
2022-11-21T09:00:46.452Z,98296.00
2022-11-21T09:03:16.737Z,98286.00
2022-11-21T09:05:52.401Z,98312.00
2022-11-21T09:08:25.387Z,98307.00
2022-11-21T09:10:59.118Z,98298.00
2022-11-21T09:13:26.097Z,98307.00
2022-11-21T09:15:59.371Z,98305.00
2022-11-21T09:18:26.253Z,98298.00
2022-11-21T09:20:59.387Z,98291.00
2022-11-21T09:23:32.374Z,98298.00
2022-11-21T09:26:01.236Z,98296.00
2022-11-21T09:28:34.377Z,98304.00
2022-11-21T09:31:02.823Z,98295.00
2022-11-21T09:33:36.392Z,98299.00
2022-11-21T09:36:10.412Z,98293.00
2022-11-21T09:38:37.305Z,98297.00
2022-11-21T09:41:44.411Z,98293.00
2022-11-21T09:44:42.022Z,98302.00
2022-11-21T09:47:47.373Z,98282.00
2022-11-21T09:50:14.321Z,98280.00
2022-11-21T09:53:26.408Z,98292.00
2022-11-21T09:55:57.835Z,98288.00
2022-11-21T09:58:47.082Z,98281.00
2022-11-21T10:01:14.725Z,98269.00
2022-11-21T10:03:58.392Z,98259.00
2022-11-21T10:06:38.538Z,98264.00
2022-11-21T10:09:48.193Z,98274.00
2022-11-21T10:13:06.401Z,98265.00
2022-11-21T10:15:52.475Z,98268.00
2022-11-21T10:18:37.546Z,98258.00
2022-11-21T10:21:22.361Z,98260.00
2022-11-21T10:24:45.449Z,98255.00
2022-11-21T10:27:53.037Z,98247.00
2022-11-21T10:30:27.384Z,98239.00
2022-11-21T10:33:08.393Z,98241.00
2022-11-21T10:35:47.413Z,98233.00
2022-11-21T10:38:32.442Z,98239.00
2022-11-21T10:41:19.680Z,98216.00
2022-11-21T10:44:20.470Z,98220.00
2022-11-21T10:47:00.564Z,98212.00
2022-11-21T10:49:40.495Z,98196.00
2022-11-21T10:52:14.178Z,98199.00
2022-11-21T10:55:18.404Z,98175.00
2022-11-21T10:57:58.445Z,98178.00
2022-11-21T11:00:26.579Z,98175.00
2022-11-21T11:03:03.411Z,98175.00
2022-11-21T11:05:37.357Z,98167.00
2022-11-21T11:08:17.443Z,98168.00
2022-11-21T11:10:52.573Z,98156.00
2022-11-21T11:16:22.663Z,98130.00
2022-11-21T11:19:04.940Z,98128.00
2022-11-21T11:21:58.385Z,98126.00
2022-11-21T11:24:26.386Z,98111.00
2022-11-21T11:27:07.385Z,98124.00
2022-11-21T11:29:34.437Z,98119.00
2022-11-21T11:32:02.995Z,98115.00
2022-11-21T11:34:42.414Z,98116.00
2022-11-21T11:37:40.137Z,98113.00
2022-11-21T11:40:37.477Z,98109.00
2022-11-21T11:44:08.454Z,98109.00
2022-11-21T11:47:00.028Z,98092.00
2022-11-21T11:49:46.431Z,98093.00
2022-11-21T11:52:13.334Z,98076.00
2022-11-21T11:54:57.448Z,98079.00
2022-11-21T11:57:24.290Z,98056.00
2022-11-21T12:00:28.442Z,98067.00
2022-11-21T12:03:24.255Z,98061.00
2022-11-21T12:06:57.362Z,98051.00
2022-11-21T12:10:02.537Z,98035.00
2022-11-21T12:12:36.868Z,97998.00
2022-11-21T12:15:26.520Z,98022.00
2022-11-21T12:18:26.871Z,97994.00
2022-11-21T12:21:06.485Z,97999.00
2022-11-21T12:24:00.461Z,97988.00
2022-11-21T12:27:12.806Z,97999.00
2022-11-21T12:30:22.479Z,97986.00
2022-11-21T12:33:34.415Z,97988.00
2022-11-21T12:36:19.488Z,98000.00
2022-11-21T12:39:07.474Z,98000.00
2022-11-21T12:42:20.514Z,97979.00
2022-11-21T12:45:37.161Z,97981.00
2022-11-21T12:48:43.520Z,97966.00
2022-11-21T12:51:29.327Z,97949.00
2022-11-21T12:54:50.462Z,97940.00
2022-11-21T12:57:20.746Z,97942.00
2022-11-21T13:00:15.471Z,97944.00
2022-11-21T13:03:07.779Z,97942.00
2022-11-21T13:05:40.858Z,97930.00
2022-11-21T13:08:24.643Z,97924.00
2022-11-21T13:11:00.800Z,97930.00
2022-11-21T13:13:43.701Z,97933.00
2022-11-21T13:16:17.965Z,97920.00
2022-11-21T13:18:53.448Z,97924.00
2022-11-21T13:21:53.475Z,97904.00
2022-11-21T13:25:02.509Z,97887.00
2022-11-21T13:27:42.696Z,97896.00
2022-11-21T13:30:16.480Z,97897.00
2022-11-21T13:32:49.754Z,97893.00
2022-11-21T13:35:26.480Z,97884.00
2022-11-21T13:38:07.488Z,97893.00
2022-11-21T13:40:36.917Z,97895.00
2022-11-21T13:46:00.417Z,97897.00
2022-11-21T13:48:58.496Z,97897.00
2022-11-21T13:51:40.731Z,97908.00
2022-11-21T13:54:47.517Z,97913.00
2022-11-21T13:57:49.718Z,97898.00
2022-11-21T14:00:54.613Z,97887.00
2022-11-21T14:03:54.498Z,97891.00
2022-11-21T14:06:27.097Z,97893.00
2022-11-21T14:09:33.499Z,97881.00
2022-11-21T14:12:05.731Z,97881.00
2022-11-21T14:14:46.528Z,97876.00
2022-11-21T14:17:43.975Z,97886.00
2022-11-21T14:20:27.840Z,97887.00
2022-11-21T14:23:12.526Z,97881.00
2022-11-21T14:25:53.544Z,97874.00
2022-11-21T14:28:33.614Z,97866.00
2022-11-21T14:31:08.485Z,97859.00
2022-11-21T14:33:48.541Z,97868.00
2022-11-21T14:36:24.499Z,97870.00
2022-11-21T14:39:35.947Z,97863.00
2022-11-21T14:42:03.823Z,97860.00
2022-11-21T14:44:37.547Z,97854.00
2022-11-21T14:47:26.852Z,97861.00
2022-11-21T14:50:07.264Z,97863.00
2022-11-21T14:52:43.532Z,97855.00
2022-11-21T14:55:30.720Z,97859.00
2022-11-21T14:58:08.574Z,97853.00
2022-11-21T15:00:59.031Z,97859.00
2022-11-21T15:03:26.467Z,97864.00
2022-11-21T15:06:10.516Z,97857.00
2022-11-21T15:09:29.050Z,97855.00
2022-11-21T15:11:40.529Z,97851.00
2022-11-21T15:14:31.394Z,97862.00
2022-11-21T15:17:04.567Z,97870.00
2022-11-21T15:19:31.879Z,97864.00
2022-11-21T15:22:07.506Z,97864.00
2022-11-21T15:24:42.070Z,97867.00
2022-11-21T15:27:33.590Z,97858.00
2022-11-21T15:30:28.533Z,97860.00
2022-11-21T15:33:34.552Z,97857.00
2022-11-21T15:36:18.562Z,97854.00
2022-11-21T15:38:57.293Z,97845.00
2022-11-21T15:41:38.558Z,97840.00
2022-11-21T15:44:11.606Z,97832.00
2022-11-21T15:46:45.546Z,97837.00
2022-11-21T15:52:09.963Z,97819.00
2022-11-21T15:54:43.574Z,97827.00
2022-11-21T15:57:17.424Z,97819.00
2022-11-21T15:59:45.337Z,97825.00
2022-11-21T16:02:22.576Z,97834.00
2022-11-21T16:04:49.602Z,97808.00
2022-11-21T16:07:22.658Z,97810.00
2022-11-21T16:09:49.574Z,97803.00
2022-11-21T16:12:17.636Z,97794.00
2022-11-21T16:14:50.542Z,97808.00
2022-11-21T16:17:17.436Z,97800.00
2022-11-21T16:19:45.610Z,97796.00
2022-11-21T16:22:18.613Z,97808.00
2022-11-21T16:24:45.485Z,97799.00
2022-11-21T16:27:18.606Z,97799.00
2022-11-21T16:29:46.920Z,97789.00
2022-11-21T16:32:20.662Z,97786.00
2022-11-21T16:34:47.653Z,97784.00
2022-11-21T16:37:14.667Z,97796.00
2022-11-21T16:39:48.596Z,97780.00
2022-11-21T16:42:21.576Z,97768.00
2022-11-21T16:44:48.673Z,97802.00
2022-11-21T16:47:22.653Z,97790.00
2022-11-21T16:49:49.612Z,97791.00
2022-11-21T16:52:22.643Z,97792.00
2022-11-21T16:54:49.776Z,97795.00
2022-11-21T16:57:23.644Z,97784.00
2022-11-21T16:59:58.171Z,97779.00
2022-11-21T17:02:26.180Z,97788.00
2022-11-21T17:04:59.692Z,97785.00
2022-11-21T17:07:33.653Z,97796.00
2022-11-21T17:10:00.845Z,97793.00
2022-11-21T17:12:34.676Z,97772.00
2022-11-21T17:15:01.827Z,97769.00
2022-11-21T17:17:35.877Z,97766.00
2022-11-21T17:20:03.640Z,97760.00
2022-11-21T17:22:36.635Z,97755.00
2022-11-21T17:25:03.821Z,97744.00
2022-11-21T17:27:37.667Z,97741.00
2022-11-21T17:30:11.627Z,97760.00
2022-11-21T17:32:46.974Z,97767.00
2022-11-21T17:35:14.142Z,97771.00
2022-11-21T17:37:47.676Z,97756.00
2022-11-21T17:40:14.627Z,97765.00
2022-11-21T17:42:41.666Z,97765.00
2022-11-21T17:45:15.648Z,97758.00
2022-11-21T17:47:42.625Z,97762.00
2022-11-21T17:50:16.724Z,97738.00
2022-11-21T17:52:50.634Z,97754.00
2022-11-21T17:55:17.633Z,97754.00
2022-11-21T17:57:50.656Z,97746.00
2022-11-21T18:00:17.774Z,97755.00
2022-11-21T18:02:51.903Z,97753.00
2022-11-21T18:05:18.984Z,97731.00
2022-11-21T18:07:52.722Z,97748.00
2022-11-21T18:10:42.732Z,97744.00
2022-11-21T18:13:16.698Z,97740.00
2022-11-21T18:15:43.704Z,97745.00
2022-11-21T18:18:16.645Z,97736.00
2022-11-21T18:20:43.924Z,97736.00
2022-11-21T18:23:10.905Z,97745.00
2022-11-21T18:25:44.745Z,97738.00
2022-11-21T18:28:11.635Z,97747.00
2022-11-21T18:30:44.777Z,97740.00
2022-11-21T18:33:19.156Z,97733.00
2022-11-21T18:36:00.755Z,97740.00
2022-11-21T18:38:59.918Z,97735.00
2022-11-21T18:41:31.815Z,97740.00
2022-11-21T18:44:02.880Z,97747.00
2022-11-21T18:46:37.663Z,97752.00
2022-11-21T18:49:06.827Z,97723.00
2022-11-21T18:51:40.674Z,97740.00
2022-11-21T18:54:14.819Z,97734.00
2022-11-21T18:56:41.946Z,97740.00
2022-11-21T18:59:08.961Z,97745.00
2022-11-21T19:01:43.941Z,97736.00
2022-11-21T19:04:17.731Z,97740.00
2022-11-21T19:06:50.786Z,97729.00
2022-11-21T19:09:29.429Z,97746.00
2022-11-21T19:11:59.320Z,97750.00
2022-11-21T19:14:32.733Z,97736.00
2022-11-21T19:17:06.883Z,97741.00
2022-11-21T19:19:35.272Z,97730.00
2022-11-21T19:22:09.925Z,97742.00
2022-11-21T19:24:43.848Z,97732.00
2022-11-21T19:27:11.093Z,97748.00
2022-11-21T19:29:46.116Z,97756.00
2022-11-21T19:32:13.338Z,97725.00
2022-11-21T19:34:46.756Z,97732.00
2022-11-21T19:37:13.811Z,97738.00
2022-11-21T19:39:47.668Z,97731.00
2022-11-21T19:42:21.743Z,97735.00
2022-11-21T19:44:55.766Z,97734.00
2022-11-21T19:47:32.189Z,97720.00
2022-11-21T19:50:00.223Z,97738.00
2022-11-21T19:52:33.973Z,97720.00
2022-11-21T19:55:01.035Z,97713.00
2022-11-21T19:57:34.812Z,97714.00
2022-11-21T20:00:02.069Z,97717.00
2022-11-21T20:02:35.826Z,97719.00
2022-11-21T20:05:02.831Z,97728.00
2022-11-21T20:07:38.896Z,97724.00
2022-11-21T20:10:06.616Z,97713.00
2022-11-21T20:12:35.653Z,97702.00
2022-11-21T20:15:08.779Z,97703.00
2022-11-21T20:17:35.947Z,97687.00
2022-11-21T20:20:09.803Z,97682.00
2022-11-21T20:22:43.726Z,97692.00
2022-11-21T20:25:17.843Z,97695.00
2022-11-21T20:27:44.792Z,97684.00
2022-11-21T20:30:18.791Z,97694.00
2022-11-21T20:32:45.805Z,97669.00
2022-11-21T20:35:19.800Z,97693.00
2022-11-21T20:37:46.893Z,97695.00
2022-11-21T20:40:20.725Z,97701.00
2022-11-21T20:42:47.762Z,97680.00
2022-11-21T20:48:13.626Z,97690.00
2022-11-21T20:53:53.108Z,97686.00
2022-11-21T20:56:27.811Z,97703.00
2022-11-21T20:58:54.985Z,97693.00
2022-11-21T21:01:28.995Z,97678.00
2022-11-21T21:04:02.876Z,97669.00
2022-11-21T21:06:29.999Z,97678.00
2022-11-21T21:09:05.800Z,97649.00
2022-11-21T21:11:54.158Z,97632.00
2022-11-21T21:14:24.511Z,97654.00
2022-11-21T21:16:57.808Z,97646.00
2022-11-21T21:19:24.928Z,97647.00
2022-11-21T21:21:58.811Z,97612.00
2022-11-21T21:24:25.930Z,97650.00
2022-11-21T21:26:54.640Z,97629.00
2022-11-21T21:29:29.402Z,97610.00
2022-11-21T21:31:56.588Z,97614.00
2022-11-21T21:34:30.249Z,97634.00
2022-11-21T21:36:57.509Z,97621.00
2022-11-21T21:39:31.980Z,97626.00
2022-11-21T21:41:59.196Z,97595.00
2022-11-21T21:44:32.775Z,97628.00
2022-11-21T21:47:06.785Z,97590.00
2022-11-21T21:49:41.016Z,97609.00
2022-11-21T21:52:14.858Z,97619.00
2022-11-21T21:54:48.743Z,97606.00
2022-11-21T21:57:16.009Z,97590.00
2022-11-21T21:59:43.274Z,97588.00
2022-11-21T22:02:20.192Z,97589.00
2022-11-21T22:04:52.014Z,97577.00
2022-11-21T22:07:27.939Z,97554.00
2022-11-21T22:09:55.150Z,97580.00
2022-11-21T22:12:28.982Z,97563.00
2022-11-21T22:14:56.060Z,97572.00
2022-11-21T22:17:29.811Z,97555.00
2022-11-21T22:19:57.140Z,97582.00
2022-11-21T22:22:30.902Z,97580.00
2022-11-21T22:24:57.897Z,97589.00
2022-11-21T22:27:31.916Z,97585.00
2022-11-21T22:30:05.906Z,97576.00
2022-11-21T22:32:33.102Z,97580.00
2022-11-21T22:35:06.875Z,97579.00
2022-11-21T22:37:47.914Z,97585.00
2022-11-21T22:40:15.703Z,97570.00
2022-11-21T22:42:48.831Z,97575.00
2022-11-21T22:45:22.973Z,97585.00
2022-11-21T22:47:56.934Z,97584.00
2022-11-21T22:50:30.858Z,97574.00
2022-11-21T22:53:04.882Z,97574.00
2022-11-21T22:55:38.915Z,97586.00
2022-11-21T22:58:12.893Z,97556.00
2022-11-21T23:00:39.940Z,97552.00
2022-11-21T23:03:14.005Z,97578.00
2022-11-21T23:05:47.859Z,97557.00
2022-11-21T23:08:14.910Z,97542.00
2022-11-21T23:10:48.915Z,97582.00
2022-11-21T23:13:15.978Z,97569.00
2022-11-21T23:15:49.872Z,97562.00
2022-11-21T23:18:23.787Z,97543.00
2022-11-21T23:20:50.716Z,97539.00
2022-11-21T23:23:23.824Z,97516.00
2022-11-21T23:25:57.855Z,97500.00
2022-11-21T23:28:24.872Z,97501.00
2022-11-21T23:30:58.915Z,97517.00
2022-11-21T23:33:25.905Z,97492.00
2022-11-21T23:35:52.997Z,97485.00
2022-11-21T23:38:26.898Z,97498.00
2022-11-21T23:40:53.888Z,97501.00
2022-11-21T23:43:27.875Z,97472.00
2022-11-21T23:45:54.988Z,97484.00
2022-11-21T23:48:28.873Z,97493.00
2022-11-21T23:50:56.185Z,97495.00
2022-11-21T23:53:29.906Z,97475.00
2022-11-21T23:55:56.843Z,97464.00
2022-11-21T23:58:23.865Z,97482.00
